Grissom ARB Airport
KGUS : now visible

Airfield :











YOU CAN JOIN US ON...

 
LOGIN :

Register | Disclaimer

   EN    FR    IT 

 









Legend :    VFR   Marginal VFR   IFR   Intensive IFR   Very Intensive IFR
Visi :
Ceiling :
>= 8 km
>= 3000ft
5 to 8 km
1000 to 3000 ft
1500m to 5 km
500 to 1000 ft
800 to 1500m
200 to 500 ft
< 800m
< 200 ft
Symbols :   Thunderstorms  Fog  Heavy snow  Heavy precipitations  Wind > 20 kt






- Airport Elevation : 812 ft


KGUS - Grissom ARB

CURRENT METAR :
  • 301456Z AUTO 33007KT 10SM FEW018 22/15 A3012 RMK AO2 SLPNO T02150153 52014 $

EXPIRED METARs :
  • 301436Z AUTO 34005KT 10SM SCT014 21/16 A3011 RMK AO2 SLPNO $
  • 301429Z 32006KT 10SM SCT014 BKN023 21/17 A3011 RMK AO2A 52015 $
  • 301356Z AUTO 35007KT 10SM OVC010 20/17 A3011 RMK AO2 SLPNO T01950169 $
  • 301341Z AUTO 36007KT 10SM BKN011 20/17 A3011 RMK AO2 SLPNO $
  • 301256Z AUTO 02006KT 10SM CLR 19/18 A3009 RMK AO2 SLPNO T01940175 $

TAF TAF KGUS
Valid from the 30 at 13:00 until the 31 at 19:00 UTC


301300Z 3013/3119 01010KT 9999 FEW100 FEW200 QNH3001INS
BECMG 3114/3115 VRB06KT 9999 FEW100 QNH2997INS TX26/3021Z TN14/3111Z
KZAU FIR / North America



MET'MAP, your aeronautical weather chart ! - Copyright ORBIFLY December 2007 - Disclaimer

ORBIFLY MET'MAP TEAM :

Programming & Development : Alexandra Zaïnal
Concept & original design : Baudouin d'Aumeries
Assistance for programming : Marc-Olivier Méhu
Technical & hardware support : Manuel Goepfert

Contact : metmap@orbifly.com




SOURCES & CREDITS :

   NOAA       Earth
Advisory